createdAt,value
2022-09-18T00:00:59.664Z,99.90
2022-09-18T00:03:28.358Z,99.90
2022-09-18T00:05:55.061Z,99.90
2022-09-18T00:08:21.763Z,99.90
2022-09-18T00:10:48.570Z,99.90
2022-09-18T00:13:15.892Z,99.90
2022-09-18T00:15:42.685Z,99.90
2022-09-18T00:18:09.569Z,99.90
2022-09-18T00:20:37.453Z,99.90
2022-09-18T00:23:04.533Z,99.90
2022-09-18T00:25:32.245Z,99.90
2022-09-18T00:27:58.964Z,99.90
2022-09-18T00:30:25.679Z,99.90
2022-09-18T00:32:52.433Z,99.90
2022-09-18T00:35:19.107Z,99.90
2022-09-18T00:37:45.788Z,99.90
2022-09-18T00:40:12.550Z,99.90
2022-09-18T00:42:39.233Z,99.90
2022-09-18T00:45:06.322Z,99.90
2022-09-18T00:47:38.319Z,99.90
2022-09-18T00:50:14.392Z,99.90
2022-09-18T00:53:05.815Z,99.90
2022-09-18T00:55:38.108Z,99.90
2022-09-18T00:58:05.644Z,99.90
2022-09-18T01:00:33.217Z,99.90
2022-09-18T01:03:04.320Z,99.90
2022-09-18T01:05:30.967Z,99.90
2022-09-18T01:08:09.503Z,99.90
2022-09-18T01:10:48.937Z,99.90
2022-09-18T01:13:37.305Z,99.90
2022-09-18T01:16:22.229Z,99.90
2022-09-18T01:19:16.369Z,99.90
2022-09-18T01:22:01.074Z,99.90
2022-09-18T01:24:45.631Z,99.90
2022-09-18T01:27:34.571Z,99.90
2022-09-18T01:30:11.100Z,99.90
2022-09-18T01:32:59.604Z,99.90
2022-09-18T01:35:52.612Z,99.90
2022-09-18T01:38:25.402Z,99.60
2022-09-18T01:40:59.034Z,99.50
2022-09-18T01:43:29.478Z,99.00
2022-09-18T01:46:01.170Z,99.10
2022-09-18T01:48:34.810Z,99.20
2022-09-18T01:51:28.328Z,99.20
2022-09-18T01:54:03.832Z,99.30
2022-09-18T01:56:44.909Z,99.30
2022-09-18T01:59:16.966Z,99.30
2022-09-18T02:01:45.665Z,99.50
2022-09-18T02:04:20.523Z,99.60
2022-09-18T02:07:11.849Z,99.70
2022-09-18T02:09:40.110Z,99.90
2022-09-18T02:12:10.166Z,99.90
2022-09-18T02:14:42.479Z,99.90
2022-09-18T02:17:18.252Z,99.90
2022-09-18T02:19:50.908Z,99.90
2022-09-18T02:22:22.188Z,99.90
2022-09-18T02:24:50.933Z,99.90
2022-09-18T02:27:19.561Z,99.90
2022-09-18T02:29:49.218Z,99.90
2022-09-18T02:32:15.957Z,99.90
2022-09-18T02:34:42.609Z,99.90
2022-09-18T02:37:21.969Z,99.90
2022-09-18T02:39:54.863Z,99.90
2022-09-18T02:42:34.180Z,99.90
2022-09-18T02:45:18.407Z,99.90
2022-09-18T02:48:06.021Z,99.90
2022-09-18T02:50:51.433Z,99.90
2022-09-18T02:53:42.599Z,99.90
2022-09-18T02:56:36.751Z,99.90
2022-09-18T02:59:22.187Z,99.90
2022-09-18T03:01:49.472Z,99.90
2022-09-18T03:04:21.901Z,99.90
2022-09-18T03:06:48.554Z,99.90
2022-09-18T03:09:18.258Z,99.90
2022-09-18T03:11:45.443Z,99.90
2022-09-18T03:14:12.568Z,99.90
2022-09-18T03:16:39.257Z,99.90
2022-09-18T03:19:05.910Z,99.90
2022-09-18T03:21:32.894Z,99.90
2022-09-18T03:23:59.560Z,99.90
2022-09-18T03:26:26.363Z,99.90
2022-09-18T03:28:52.990Z,99.90
2022-09-18T03:31:19.704Z,99.90
2022-09-18T03:33:46.702Z,99.90
2022-09-18T03:36:13.415Z,99.90
2022-09-18T03:38:40.927Z,99.90
2022-09-18T03:41:07.563Z,99.90
2022-09-18T03:43:34.444Z,99.90
2022-09-18T03:46:01.693Z,99.90
2022-09-18T03:48:28.632Z,99.90
2022-09-18T03:50:55.396Z,99.90
2022-09-18T03:53:22.079Z,99.90
2022-09-18T03:55:52.150Z,99.90
2022-09-18T03:58:18.852Z,99.90
2022-09-18T04:00:45.831Z,99.90
2022-09-18T04:03:12.698Z,99.90
2022-09-18T04:05:39.412Z,99.90
2022-09-18T04:08:06.181Z,99.90
2022-09-18T04:10:33.189Z,99.90
2022-09-18T04:12:59.825Z,99.90
2022-09-18T04:15:26.525Z,99.90
2022-09-18T04:17:53.187Z,99.90
2022-09-18T04:20:19.819Z,99.90
2022-09-18T04:22:46.469Z,99.90
2022-09-18T04:25:13.184Z,99.90
2022-09-18T04:27:39.841Z,99.90
2022-09-18T04:30:07.043Z,99.90
2022-09-18T04:32:33.834Z,99.90
2022-09-18T04:35:00.637Z,99.90
2022-09-18T04:37:29.529Z,99.90
2022-09-18T04:39:56.281Z,99.90
2022-09-18T04:42:23.176Z,99.90
2022-09-18T04:44:49.905Z,99.90
2022-09-18T04:47:16.714Z,99.90
2022-09-18T04:49:43.319Z,99.90
2022-09-18T04:52:10.739Z,99.90
2022-09-18T04:54:38.011Z,99.90
2022-09-18T04:57:05.019Z,99.90
2022-09-18T04:59:32.055Z,99.90
2022-09-18T05:01:59.265Z,99.90
2022-09-18T05:04:25.946Z,99.90
2022-09-18T05:06:52.738Z,99.90
2022-09-18T05:09:19.353Z,99.90
2022-09-18T05:11:46.050Z,99.90
2022-09-18T05:14:12.858Z,99.90
2022-09-18T05:16:39.618Z,99.90
2022-09-18T05:19:06.593Z,99.90
2022-09-18T05:21:33.309Z,99.90
2022-09-18T05:24:00.069Z,99.90
2022-09-18T05:26:26.929Z,99.90
2022-09-18T05:28:53.586Z,99.90
2022-09-18T05:31:20.273Z,99.90
2022-09-18T05:33:47.072Z,99.90
2022-09-18T05:36:13.724Z,99.90
2022-09-18T05:38:40.382Z,99.90
2022-09-18T05:41:07.106Z,99.90
2022-09-18T05:43:33.817Z,99.90
2022-09-18T05:46:02.271Z,99.90
2022-09-18T05:48:28.929Z,99.90
2022-09-18T05:50:56.508Z,99.90
2022-09-18T05:53:23.260Z,99.90
2022-09-18T05:55:49.908Z,99.90
2022-09-18T05:58:19.102Z,99.90
2022-09-18T06:00:46.293Z,99.90
2022-09-18T06:03:16.812Z,99.90
2022-09-18T06:05:50.930Z,99.90
2022-09-18T06:08:17.604Z,99.90
2022-09-18T06:10:44.431Z,99.90
2022-09-18T06:13:16.531Z,99.90
2022-09-18T06:15:47.985Z,99.90
2022-09-18T06:18:15.531Z,99.90
2022-09-18T06:20:43.118Z,99.90
2022-09-18T06:23:10.222Z,99.90
2022-09-18T06:25:36.925Z,99.90
2022-09-18T06:28:06.577Z,99.90
2022-09-18T06:30:35.497Z,99.90
2022-09-18T06:33:05.059Z,99.90
2022-09-18T06:35:38.611Z,99.90
2022-09-18T06:38:06.853Z,99.90
2022-09-18T06:40:35.433Z,99.90
2022-09-18T06:43:03.230Z,99.90
2022-09-18T06:45:31.144Z,99.90
2022-09-18T06:48:02.180Z,99.90
2022-09-18T06:50:29.765Z,99.90
2022-09-18T06:53:02.442Z,99.90
2022-09-18T06:55:29.059Z,99.90
2022-09-18T06:57:59.758Z,99.90
2022-09-18T07:00:27.429Z,99.90
2022-09-18T07:02:58.824Z,99.90
2022-09-18T07:05:27.117Z,99.90
2022-09-18T07:07:53.825Z,99.90
2022-09-18T07:10:20.901Z,99.90
2022-09-18T07:12:48.918Z,99.90
2022-09-18T07:15:20.216Z,99.90
2022-09-18T07:17:47.201Z,99.90
2022-09-18T07:20:15.057Z,99.90
2022-09-18T07:22:46.561Z,99.90
2022-09-18T07:25:14.292Z,99.90
2022-09-18T07:27:40.992Z,99.90
2022-09-18T07:30:08.129Z,99.90
2022-09-18T07:32:35.862Z,99.90
2022-09-18T07:35:02.552Z,99.90
2022-09-18T07:37:29.467Z,99.90
2022-09-18T07:39:56.161Z,99.90
2022-09-18T07:42:22.881Z,99.90
2022-09-18T07:44:49.498Z,99.90
2022-09-18T07:47:16.310Z,99.90
2022-09-18T07:49:43.271Z,99.90
2022-09-18T07:52:10.261Z,99.90
2022-09-18T07:54:36.974Z,99.90
2022-09-18T07:57:04.146Z,99.90
2022-09-18T07:59:30.858Z,99.90
2022-09-18T08:01:58.106Z,99.90
2022-09-18T08:04:24.958Z,99.90
2022-09-18T08:06:55.464Z,99.90
2022-09-18T08:09:22.469Z,99.90
2022-09-18T08:11:52.253Z,99.90
2022-09-18T08:14:19.027Z,99.90
2022-09-18T08:16:45.847Z,99.90
2022-09-18T08:19:13.045Z,99.90
2022-09-18T08:21:39.831Z,99.90
2022-09-18T08:24:06.673Z,99.90
2022-09-18T08:26:36.131Z,99.90
2022-09-18T08:29:02.877Z,99.90
2022-09-18T08:31:29.551Z,99.90
2022-09-18T08:33:56.349Z,99.90
2022-09-18T08:36:23.126Z,99.90
2022-09-18T08:38:53.413Z,99.90
2022-09-18T08:41:40.995Z,99.90
2022-09-18T08:44:12.186Z,99.90
2022-09-18T08:46:45.380Z,99.90
2022-09-18T08:49:20.080Z,99.90
2022-09-18T08:51:54.951Z,99.90
2022-09-18T08:54:24.526Z,99.90
2022-09-18T08:56:52.443Z,99.90
2022-09-18T08:59:42.257Z,99.90
2022-09-18T09:02:16.165Z,99.90
2022-09-18T09:04:43.514Z,99.90
2022-09-18T09:07:28.871Z,99.90
2022-09-18T09:10:32.407Z,99.90
2022-09-18T09:13:10.954Z,99.90
2022-09-18T09:15:43.520Z,99.90
2022-09-18T09:18:32.896Z,99.90
2022-09-18T09:21:17.614Z,99.90
2022-09-18T09:24:21.006Z,99.90
2022-09-18T09:26:53.674Z,99.90
2022-09-18T09:29:24.959Z,99.90
2022-09-18T09:31:59.732Z,99.90
2022-09-18T09:34:37.664Z,99.90
2022-09-18T09:37:11.504Z,99.90
2022-09-18T09:39:49.538Z,99.90
2022-09-18T09:42:27.435Z,99.90
2022-09-18T09:45:03.694Z,99.90
2022-09-18T09:47:49.205Z,99.90
2022-09-18T09:50:38.183Z,99.90
2022-09-18T09:53:09.382Z,99.90
2022-09-18T09:55:45.178Z,99.90
2022-09-18T09:58:49.170Z,99.90
2022-09-18T10:01:27.539Z,99.90
2022-09-18T10:04:19.178Z,99.90
2022-09-18T10:06:56.663Z,99.90
2022-09-18T10:09:43.647Z,99.90
2022-09-18T10:12:42.304Z,99.90
2022-09-18T10:15:21.950Z,99.90
2022-09-18T10:17:52.246Z,99.90
2022-09-18T10:20:27.369Z,99.90
2022-09-18T10:22:58.380Z,99.90
2022-09-18T10:25:43.129Z,99.90
2022-09-18T10:28:16.223Z,99.90
2022-09-18T10:31:12.844Z,99.90
2022-09-18T10:33:52.935Z,99.90
2022-09-18T10:36:52.158Z,99.90
2022-09-18T10:39:36.370Z,99.90
2022-09-18T10:42:07.320Z,99.40
2022-09-18T10:44:39.769Z,98.80
2022-09-18T10:47:08.055Z,98.60
2022-09-18T10:49:58.035Z,98.40
2022-09-18T10:52:33.613Z,98.10
2022-09-18T10:55:22.489Z,97.70
2022-09-18T10:57:58.039Z,97.80
2022-09-18T11:00:25.326Z,97.40
2022-09-18T11:02:56.991Z,97.50
2022-09-18T11:05:33.081Z,97.00
2022-09-18T11:08:03.855Z,96.40
2022-09-18T11:10:36.931Z,95.90
2022-09-18T11:13:04.399Z,96.00
2022-09-18T11:15:34.376Z,95.90
2022-09-18T11:18:05.138Z,95.50
2022-09-18T11:20:35.515Z,95.20
2022-09-18T11:23:18.480Z,95.20
2022-09-18T11:25:47.122Z,94.60
2022-09-18T11:28:29.251Z,94.00
2022-09-18T11:31:02.337Z,94.10
2022-09-18T11:33:33.553Z,94.20
2022-09-18T11:36:07.591Z,94.10
2022-09-18T11:38:40.559Z,93.50
2022-09-18T11:41:08.727Z,91.80
2022-09-18T11:43:38.253Z,91.60
2022-09-18T11:46:30.467Z,91.20
2022-09-18T11:49:04.817Z,90.90
2022-09-18T11:51:46.701Z,90.90
2022-09-18T11:54:40.149Z,90.70
2022-09-18T11:57:20.740Z,86.80
2022-09-18T11:59:57.676Z,89.20
2022-09-18T12:02:39.343Z,89.10
2022-09-18T12:05:27.655Z,88.40
2022-09-18T12:08:23.845Z,88.20
2022-09-18T12:10:53.944Z,88.90
2022-09-18T12:13:45.405Z,87.40
2022-09-18T12:16:29.064Z,87.90
2022-09-18T12:19:00.310Z,87.00
2022-09-18T12:21:49.465Z,85.20
2022-09-18T12:24:17.533Z,83.60
2022-09-18T12:27:10.665Z,81.30
2022-09-18T12:30:19.159Z,82.00
2022-09-18T12:32:55.642Z,82.60
2022-09-18T12:35:56.400Z,83.20
2022-09-18T12:38:35.902Z,83.50
2022-09-18T12:41:15.311Z,83.10
2022-09-18T12:44:19.334Z,82.70
2022-09-18T12:47:11.948Z,82.80
2022-09-18T12:50:01.374Z,82.90
2022-09-18T12:53:00.263Z,81.90
2022-09-18T12:55:36.595Z,80.80
2022-09-18T12:58:19.288Z,80.30
2022-09-18T13:00:48.922Z,79.90
2022-09-18T13:03:29.767Z,81.00
2022-09-18T13:06:07.599Z,81.00
2022-09-18T13:08:46.765Z,81.00
2022-09-18T13:11:30.408Z,81.30
2022-09-18T13:14:03.032Z,80.90
2022-09-18T13:16:50.021Z,79.90
2022-09-18T13:19:31.468Z,79.20
2022-09-18T13:22:02.428Z,80.70
2022-09-18T13:24:35.198Z,80.90
2022-09-18T13:27:04.214Z,80.90
2022-09-18T13:29:51.848Z,81.00
2022-09-18T13:32:25.955Z,80.70
2022-09-18T13:34:58.023Z,81.00
2022-09-18T13:37:26.890Z,81.10
2022-09-18T13:40:09.895Z,81.30
2022-09-18T13:42:40.975Z,82.00
2022-09-18T13:45:16.599Z,82.50
2022-09-18T13:48:01.883Z,80.20
2022-09-18T13:50:29.764Z,80.10
2022-09-18T13:52:58.651Z,80.30
2022-09-18T13:55:27.060Z,80.00
2022-09-18T13:58:31.917Z,80.60
2022-09-18T14:01:09.709Z,80.60
2022-09-18T14:03:42.604Z,80.90
2022-09-18T14:06:37.318Z,81.40
2022-09-18T14:09:44.636Z,81.40
2022-09-18T14:12:16.546Z,82.20
2022-09-18T14:14:55.989Z,82.50
2022-09-18T14:17:23.882Z,82.30
2022-09-18T14:20:07.477Z,82.70
2022-09-18T14:22:38.065Z,83.10
2022-09-18T14:25:07.227Z,82.80
2022-09-18T14:27:34.346Z,83.20
2022-09-18T14:30:23.402Z,82.50
2022-09-18T14:33:09.570Z,82.70
2022-09-18T14:35:47.545Z,83.10
2022-09-18T14:38:24.813Z,82.50
2022-09-18T14:41:19.073Z,82.60
2022-09-18T14:43:48.958Z,81.90
2022-09-18T14:46:24.023Z,82.60
2022-09-18T14:48:51.651Z,82.70
2022-09-18T14:51:26.976Z,82.00
2022-09-18T14:53:56.240Z,81.80
2022-09-18T14:56:33.043Z,82.40
2022-09-18T14:59:04.667Z,82.80
2022-09-18T15:01:33.492Z,83.00
2022-09-18T15:04:03.046Z,83.30
2022-09-18T15:06:38.851Z,83.00
2022-09-18T15:09:08.994Z,82.70
2022-09-18T15:11:52.561Z,83.10
2022-09-18T15:14:45.367Z,84.00
2022-09-18T15:17:24.658Z,83.80
2022-09-18T15:20:21.483Z,83.40
2022-09-18T15:22:51.534Z,84.40
2022-09-18T15:25:23.494Z,82.90
2022-09-18T15:27:51.785Z,82.60
2022-09-18T15:30:21.493Z,82.50
2022-09-18T15:33:03.839Z,82.90
2022-09-18T15:35:35.705Z,82.50
2022-09-18T15:38:08.059Z,82.30
2022-09-18T15:40:38.021Z,81.70
2022-09-18T15:43:30.428Z,82.00
2022-09-18T15:46:22.966Z,82.40
2022-09-18T15:48:50.967Z,82.20
2022-09-18T15:51:29.571Z,82.20
2022-09-18T15:54:05.779Z,82.80
2022-09-18T15:56:36.605Z,82.90
2022-09-18T15:59:07.239Z,82.90
2022-09-18T16:01:37.497Z,82.60
2022-09-18T16:04:08.986Z,83.20
2022-09-18T16:06:49.750Z,83.20
2022-09-18T16:09:41.674Z,83.00
2022-09-18T16:12:30.115Z,83.20
2022-09-18T16:15:02.976Z,83.50
2022-09-18T16:17:31.904Z,84.00
2022-09-18T16:20:20.568Z,83.80
2022-09-18T16:22:48.435Z,83.20
2022-09-18T16:25:26.437Z,83.10
2022-09-18T16:27:56.511Z,83.50
2022-09-18T16:30:24.037Z,83.60
2022-09-18T16:32:58.501Z,83.70
2022-09-18T16:35:25.411Z,83.70
2022-09-18T16:37:52.562Z,83.60
2022-09-18T16:40:27.640Z,83.20
2022-09-18T16:42:58.527Z,82.10
2022-09-18T16:45:27.076Z,82.20
2022-09-18T16:48:00.321Z,82.90
2022-09-18T16:50:27.780Z,82.30
2022-09-18T16:52:56.697Z,82.50
2022-09-18T16:55:26.550Z,82.50
2022-09-18T16:57:53.807Z,82.40
2022-09-18T17:00:20.613Z,82.00
2022-09-18T17:02:47.423Z,81.90
2022-09-18T17:05:14.270Z,82.40
2022-09-18T17:07:43.015Z,82.60
2022-09-18T17:10:12.418Z,82.40
2022-09-18T17:12:40.968Z,82.30
2022-09-18T17:15:09.345Z,82.60
2022-09-18T17:17:36.467Z,82.10
2022-09-18T17:20:05.002Z,82.40
2022-09-18T17:22:32.341Z,82.60
2022-09-18T17:24:59.760Z,82.40
2022-09-18T17:27:27.005Z,82.50
2022-09-18T17:29:53.932Z,82.60
2022-09-18T17:32:21.154Z,82.80
2022-09-18T17:34:48.057Z,82.60
2022-09-18T17:37:15.011Z,82.60
2022-09-18T17:39:42.300Z,83.20
2022-09-18T17:42:09.417Z,83.40
2022-09-18T17:44:37.289Z,83.30
2022-09-18T17:47:04.556Z,83.40
2022-09-18T17:49:33.035Z,83.50
2022-09-18T17:52:00.432Z,83.50
2022-09-18T17:54:28.094Z,83.30
2022-09-18T17:56:55.981Z,83.40
2022-09-18T17:59:27.292Z,83.50
2022-09-18T18:01:55.666Z,83.80
2022-09-18T18:04:22.888Z,83.60
2022-09-18T18:06:49.981Z,83.60
2022-09-18T18:09:17.163Z,83.90
2022-09-18T18:11:46.865Z,84.10
2022-09-18T18:14:14.705Z,84.40
2022-09-18T18:16:41.785Z,84.30
2022-09-18T18:19:12.353Z,83.80
2022-09-18T18:21:41.701Z,83.90
2022-09-18T18:24:12.490Z,84.10
2022-09-18T18:26:40.154Z,83.70
2022-09-18T18:29:11.139Z,83.60
2022-09-18T18:31:40.823Z,83.50
2022-09-18T18:34:11.095Z,83.60
2022-09-18T18:36:39.997Z,83.70
2022-09-18T18:39:12.121Z,84.10
2022-09-18T18:41:39.955Z,84.40
2022-09-18T18:44:08.024Z,84.20
2022-09-18T18:46:36.717Z,84.50
2022-09-18T18:49:10.274Z,84.40
2022-09-18T18:51:48.785Z,84.60
2022-09-18T18:54:18.067Z,84.40
2022-09-18T18:56:46.418Z,84.70
2022-09-18T18:59:19.125Z,85.20
2022-09-18T19:01:47.392Z,85.20
2022-09-18T19:04:17.241Z,84.70
2022-09-18T19:06:45.413Z,84.80
2022-09-18T19:09:20.577Z,85.00
2022-09-18T19:11:49.480Z,85.00
2022-09-18T19:14:19.129Z,85.10
2022-09-18T19:16:47.663Z,85.10
2022-09-18T19:19:16.653Z,85.20
2022-09-18T19:21:43.603Z,85.30
2022-09-18T19:24:12.292Z,85.30
2022-09-18T19:26:41.321Z,85.40
2022-09-18T19:29:12.543Z,85.50
2022-09-18T19:31:41.222Z,85.80
2022-09-18T19:34:13.987Z,85.90
2022-09-18T19:36:42.171Z,86.10
2022-09-18T19:39:11.982Z,86.10
2022-09-18T19:42:06.904Z,86.40
2022-09-18T19:44:47.620Z,86.40
2022-09-18T19:47:28.192Z,86.60
2022-09-18T19:49:57.688Z,86.30
2022-09-18T19:52:28.715Z,86.50
2022-09-18T19:54:57.073Z,86.50
2022-09-18T19:57:26.398Z,86.40
2022-09-18T19:59:55.408Z,86.70
2022-09-18T20:02:24.518Z,86.30
2022-09-18T20:04:51.645Z,86.70
2022-09-18T20:07:18.656Z,87.10
2022-09-18T20:09:45.513Z,88.80
2022-09-18T20:12:13.055Z,89.30
2022-09-18T20:14:39.905Z,90.30
2022-09-18T20:17:07.043Z,90.80
2022-09-18T20:19:34.536Z,91.10
2022-09-18T20:22:04.853Z,91.40
2022-09-18T20:24:32.763Z,91.40
2022-09-18T20:27:00.832Z,91.30
2022-09-18T20:29:29.118Z,91.50
2022-09-18T20:31:56.240Z,91.20
2022-09-18T20:34:24.803Z,91.50
2022-09-18T20:36:52.564Z,91.80
2022-09-18T20:39:19.541Z,92.10
2022-09-18T20:41:47.769Z,92.60
2022-09-18T20:44:15.433Z,93.00
2022-09-18T20:46:42.907Z,93.50
2022-09-18T20:49:11.014Z,93.50
2022-09-18T20:51:37.858Z,93.80
2022-09-18T20:54:07.978Z,93.70
2022-09-18T20:56:41.224Z,94.00
2022-09-18T20:59:09.839Z,94.40
2022-09-18T21:01:38.280Z,94.40
2022-09-18T21:04:05.307Z,94.60
2022-09-18T21:06:34.196Z,94.50
2022-09-18T21:09:08.560Z,94.70
2022-09-18T21:11:41.360Z,94.70
2022-09-18T21:14:10.390Z,95.00
2022-09-18T21:16:43.006Z,95.00
2022-09-18T21:19:12.222Z,95.30
2022-09-18T21:21:39.769Z,95.20
2022-09-18T21:24:08.841Z,95.30
2022-09-18T21:26:38.626Z,95.30
2022-09-18T21:29:25.408Z,95.60
2022-09-18T21:31:58.774Z,96.10
2022-09-18T21:34:31.420Z,96.00
2022-09-18T21:37:07.883Z,96.30
2022-09-18T21:39:35.836Z,96.20
2022-09-18T21:42:07.281Z,96.30
2022-09-18T21:44:37.829Z,96.60
2022-09-18T21:47:07.845Z,96.60
2022-09-18T21:49:35.116Z,96.80
2022-09-18T21:52:07.365Z,96.90
2022-09-18T21:54:34.698Z,97.20
2022-09-18T21:57:03.398Z,97.20
2022-09-18T21:59:31.469Z,97.30
2022-09-18T22:01:59.260Z,97.60
2022-09-18T22:04:29.346Z,97.70
2022-09-18T22:06:58.202Z,97.70
2022-09-18T22:09:28.479Z,97.80
2022-09-18T22:11:56.689Z,97.70
2022-09-18T22:14:28.651Z,98.10
2022-09-18T22:16:56.342Z,97.90
2022-09-18T22:19:23.064Z,98.10
2022-09-18T22:21:53.259Z,98.00
2022-09-18T22:24:22.912Z,98.20
2022-09-18T22:27:03.058Z,98.30
2022-09-18T22:29:32.347Z,98.30
2022-09-18T22:31:59.522Z,98.90
2022-09-18T22:34:29.074Z,98.60
2022-09-18T22:36:57.292Z,98.80
2022-09-18T22:39:24.095Z,99.00
2022-09-18T22:41:52.087Z,99.00
2022-09-18T22:44:21.288Z,99.20
2022-09-18T22:46:48.977Z,99.40
2022-09-18T22:49:17.481Z,99.40
2022-09-18T22:51:45.489Z,99.60
2022-09-18T22:54:13.323Z,99.70
2022-09-18T22:56:44.800Z,99.80
2022-09-18T22:59:16.506Z,99.90
2022-09-18T23:01:50.327Z,99.90
2022-09-18T23:04:19.314Z,99.90
2022-09-18T23:06:47.864Z,99.90
2022-09-18T23:09:16.049Z,99.90
2022-09-18T23:11:44.746Z,99.90
2022-09-18T23:14:18.655Z,99.90
2022-09-18T23:16:45.505Z,99.90
2022-09-18T23:19:18.682Z,99.90
2022-09-18T23:21:45.638Z,99.90
2022-09-18T23:24:14.477Z,99.90
2022-09-18T23:26:43.594Z,99.90
2022-09-18T23:29:16.049Z,99.90
2022-09-18T23:31:45.387Z,99.90
2022-09-18T23:34:15.034Z,99.90
2022-09-18T23:36:44.643Z,99.90
2022-09-18T23:39:14.644Z,99.90
2022-09-18T23:41:42.051Z,99.90
2022-09-18T23:44:11.084Z,99.90
2022-09-18T23:46:38.140Z,99.90
2022-09-18T23:49:06.970Z,99.90
2022-09-18T23:51:36.929Z,99.90
2022-09-18T23:54:06.129Z,99.90
2022-09-18T23:56:34.298Z,99.90
2022-09-18T23:59:03.290Z,99.90
